Latest Coastal Weather Observations for Ngayawili (Elcho Island)

IDD60701

Issued at 6:45 am CST Monday 21 April 2014 (issued every 10 minutes, with the page automatically refreshed every 10 minutes)

About coastal observations | Map of coastal stations | Coastal observations for NT | Marine services | Other Formats
Station Details ID: 014517 Name: NGAYAWILI Lat: -12.00 Lon: 135.57 Height: 8.1 m
Data from the previous 72 hours. | See also: Recent months at Ngayawili (Elcho Island)
Date/Time
CST
Temp

°C
Wind Pressure Rain
since 9am
mm
Weather Cloud Vis
km
Sea
Height
m
Swell
Dir
 
Speed
knots
Gust
knots
hPa Trend Height
m
Period
s
Dir
21/06:30am 25.2 SE 4 6 1009.4 - 0.0 - - - - - - -
21/06:00am 25.3 SE 5 7 1009.1 - 0.0 - - - - - - -
21/05:30am 25.5 SE 5 8 1008.9 - 0.0 - - - - - - -
21/05:00am 25.4 ESE 5 7 1008.8 - 0.0 - - - - - - -
21/04:30am 25.6 ESE 5 8 1008.9 - 0.0 - - - - - - -
21/04:00am 25.7 ESE 6 8 1008.9 - 0.0 - - - - - - -
21/03:30am 25.6 SE 5 8 1009.0 - 0.0 - - - - - - -
21/03:00am 25.6 SE 6 8 1008.8 - 0.0 - - - - - - -
21/02:30am 25.8 SE 6 8 1008.8 - 0.0 - - - - - - -
21/02:00am 25.7 SE 5 8 1009.0 - 0.0 - - - - - - -
21/01:30am 25.8 SE 4 7 1009.4 - 0.0 - - - - - - -
21/01:00am 26.1 SE 5 8 1009.6 - 0.0 - - - - - - -
21/12:30am 26.2 ESE 5 7 1009.8 - 0.0 - - - - - - -
21/12:00am 26.5 ESE 5 8 1010.1 - 0.0 - - - - - - -
 
Date/Time
CST
Temp

°C
Wind Pressure Rain
since 9am
mm
Weather Cloud Vis
km
Sea
Height
m
Swell
Dir
 
Speed
knots
Gust
knots
hPa Trend Height
m
Period
s
Dir
20/11:30pm 26.7 SE 6 11 1010.4 - 0.0 - - - - - - -
20/11:00pm 26.9 ESE 6 10 1010.5 - 0.0 - - - - - - -
20/10:30pm 27.1 SE 6 9 1010.6 - 0.0 - - - - - - -
20/10:00pm 27.4 SSE 6 10 1010.8 - 0.0 - - - - - - -
20/09:30pm 27.4 ESE 6 11 1011.0 - 0.0 - - - - - - -
20/09:00pm 27.6 ESE 6 11 1010.8 - 0.0 - - - - - - -
20/08:30pm 27.9 SE 6 9 1010.7 - 0.0 - - - - - - -
20/08:00pm 28.1 ESE 6 10 1010.4 - 0.0 - - - - - - -
20/07:30pm 28.1 SE 6 9 1010.1 - 0.0 - - - - - - -
20/07:00pm 28.2 ESE 6 11 1009.6 - 0.0 - - - - - - -
20/06:30pm 28.4 E 5 8 1009.3 - 0.0 - - - - - - -
20/06:00pm 29.0 E 5 9 1008.8 - 0.0 - - - - - - -
20/05:30pm 29.7 E 7 11 1008.6 - 0.0 - - - - - - -
20/05:00pm 30.1 E 6 9 1008.2 - 0.0 - - - - - - -
20/04:30pm 30.5 E 9 16 1008.0 - 0.0 - - - - - - -
20/04:00pm 31.1 E 9 15 1007.7 - 0.0 - - - - - - -
20/03:30pm 31.4 E 11 19 1007.4 - 0.0 - - - - - - -
20/03:00pm 31.6 E 9 15 1007.5 - 0.0 - - - - - - -
20/02:30pm 31.6 E 10 16 1007.6 - 0.0 - - - - - - -
20/02:00pm 31.6 ENE 10 17 1007.9 - 0.0 - - - - - - -
20/01:30pm 31.4 E 10 16 1008.3 - 0.0 - - - - - - -
20/01:00pm 31.4 E 9 16 1008.6 - 0.0 - - - - - - -
20/12:30pm 30.8 E 7 14 1009.2 - 0.0 - - - - - - -
20/12:00pm 30.4 E 11 17 1009.3 - 0.0 - - - - - - -
20/11:30am 30.5 E 10 17 1009.8 - 0.0 - - - - - - -
20/11:00am 30.1 E 9 15 1010.2 - 0.0 - - - - - - -
20/10:30am 29.6 E 12 18 1010.2 - 0.0 - - - - - - -
20/10:00am 29.5 ESE 8 18 1010.2 - 0.0 - - - - - - -
20/09:30am 29.1 ESE 8 13 1010.1 - 0.0 - - - - - - -
20/09:00am 28.0 SE 6 12 1010.1 - 0.0 - - - - - - -
20/08:30am 26.8 SSE 6 9 1010.3 - 0.0 - - - - - - -
20/08:00am 26.0 SSE 6 9 1010.0 - 0.0 - - - - - - -
20/07:30am 25.1 SE 6 9 1009.7 - 0.0 - - - - - - -
20/07:00am 24.1 SSE 7 9 1009.4 - 0.0 - - - - - - -
20/06:30am 23.9 SSE 6 8 1009.1 - 0.0 - - - - - - -
20/06:00am 23.8 SSE 6 8 1008.8 - 0.0 - - - - - - -
20/05:30am 23.8 SSE 6 8 1008.6 - 0.0 - - - - - - -
20/05:00am 23.8 SSE 5 8 1008.5 - 0.0 - - - - - - -
20/04:30am 23.9 SSE 7 10 1008.2 - 0.0 - - - - - - -
20/04:00am 23.8 SSE 6 8 1008.3 - 0.0 - - - - - - -
20/03:30am 23.8 SSE 6 9 1008.2 - 0.0 - - - - - - -
20/03:00am 23.8 SSE 6 9 1008.2 - 0.0 - - - - - - -
20/02:30am 23.8 SSE 6 8 1008.4 - 0.0 - - - - - - -
20/02:00am 23.8 SSE 6 9 1008.9 - 0.0 - - - - - - -
20/01:30am 23.8 SSE 6 9 1009.2 - 0.0 - - - - - - -
20/01:00am 24.0 S 6 9 1009.5 - 0.0 - - - - - - -
20/12:30am 24.2 SSE 6 9 1009.8 - 0.0 - - - - - - -
20/12:00am 24.7 SSE 7 10 1009.9 - 0.0 - - - - - - -
 
Date/Time
CST
Temp

°C
Wind Pressure Rain
since 9am
mm
Weather Cloud Vis
km
Sea
Height
m
Swell
Dir
 
Speed
knots
Gust
knots
hPa Trend Height
m
Period
s
Dir
19/11:30pm 25.0 SSE 5 7 1010.2 - 0.0 - - - - - - -
19/11:00pm 25.2 SSE 6 9 1010.4 - 0.0 - - - - - - -
19/10:30pm 25.5 SSE 6 9 1010.7 - 0.0 - - - - - - -
19/10:00pm 25.6 S 5 8 1010.8 - 0.0 - - - - - - -
19/09:30pm 25.5 S 6 8 1011.0 - 0.0 - - - - - - -
19/09:00pm 25.4 SSE 5 6 1010.9 - 0.0 - - - - - - -
19/08:30pm 25.5 S 5 7 1010.8 - 0.0 - - - - - - -
19/08:00pm 25.5 S 5 8 1010.8 - 0.0 - - - - - - -
19/07:30pm 25.4 SSE 5 6 1010.6 - 0.0 - - - - - - -
19/07:00pm 25.4 SSE 4 6 1010.1 - 0.0 - - - - - - -
19/06:30pm 25.4 SSE 5 6 1009.8 - 0.0 - - - - - - -
19/06:00pm 25.7 S 3 5 1009.3 - 0.0 - - - - - - -
19/05:30pm 25.8 S 4 6 1009.3 - 0.0 - - - - - - -
19/05:00pm 26.3 SSE 7 11 1009.1 - 0.0 - - - - - - -
19/04:30pm 27.4 ENE 6 11 1008.5 - 0.0 - - - - - - -
19/04:00pm 26.7 ENE 5 7 1008.2 - 0.0 - - - - - - -
19/03:30pm 27.6 E 5 15 1008.3 - 0.0 - - - - - - -
19/03:00pm 29.1 ENE 4 6 1008.2 - 0.0 - - - - - - -
19/02:30pm 29.4 ENE 7 10 1008.5 - 0.0 - - - - - - -
19/02:00pm 29.6 E 8 13 1008.7 - 0.0 - - - - - - -
19/01:30pm 29.6 E 7 13 1009.1 - 0.0 - - - - - - -
19/01:00pm 29.9 E 7 12 1009.5 - 0.0 - - - - - - -
19/12:30pm 29.5 E 8 12 1009.7 - 0.0 - - - - - - -
19/12:00pm 29.2 ESE 7 14 1010.2 - 0.0 - - - - - - -
19/11:30am 28.8 E 7 13 1010.7 - 0.0 - - - - - - -
19/11:00am 29.1 E 8 13 1011.1 - 0.0 - - - - - - -
19/10:30am 29.4 E 9 15 1011.4 - 0.0 - - - - - - -
19/10:00am 28.8 E 9 17 1011.5 - 0.0 - - - - - - -
19/09:30am 27.9 E 11 17 1011.4 - 0.0 - - - - - - -
19/09:00am 26.9 E 8 15 1011.3 - 0.0 - - - - - - -
19/08:30am 25.7 SSE 4 6 1011.6 - 0.0 - - - - - - -
19/08:00am 24.8 SSE 4 5 1011.4 - 0.0 - - - - - - -
19/07:30am 24.0 SSE 3 4 1010.9 - 0.0 - - - - - - -
19/07:00am 23.7 SSE 3 3 1010.6 - 0.0 - - - - - - -
19/06:30am 23.7 SSE 4 6 1010.5 - 0.0 - - - - - - -
19/06:00am 23.6 SSE 4 6 1010.0 - 0.0 - - - - - - -
19/05:30am 23.4 S 3 4 1010.0 - 0.0 - - - - - - -
19/05:00am 23.6 S 5 6 1010.1 - 0.0 - - - - - - -
19/04:30am 23.9 SSE 6 8 1009.8 - 0.0 - - - - - - -
19/04:00am 23.8 SSE 5 7 1009.9 - 0.0 - - - - - - -
19/03:30am 23.8 SE 5 7 1009.9 - 0.0 - - - - - - -
19/03:00am 23.9 SE 5 9 1009.8 - 0.0 - - - - - - -
19/02:30am 23.9 SE 5 8 1010.1 - 0.0 - - - - - - -
19/02:00am 23.8 SSE 5 6 1010.2 - 0.0 - - - - - - -
19/01:30am 24.0 SSE 5 6 1010.3 - 0.0 - - - - - - -
19/01:00am 24.0 SE 4 7 1010.6 - 0.0 - - - - - - -
19/12:30am 23.9 SE 8 11 1011.0 - 0.0 - - - - - - -
19/12:00am 23.9 SSE 8 12 1011.3 - 0.0 - - - - - - -
 
Date/Time
CST
Temp

°C
Wind Pressure Rain
since 9am
mm
Weather Cloud Vis
km
Sea
Height
m
Swell
Dir
 
Speed
knots
Gust
knots
hPa Trend Height
m
Period
s
Dir
18/11:30pm 23.8 SSE 9 12 1011.6 - 0.0 - - - - - - -
18/11:00pm 24.0 SSE 8 12 1011.8 - 0.0 - - - - - - -
18/10:30pm 24.1 SSE 7 10 1012.1 - 0.0 - - - - - - -
18/10:00pm 24.1 SSE 7 11 1012.4 - 0.0 - - - - - - -
18/09:30pm 24.2 SSE 7 12 1012.7 - 0.0 - - - - - - -
18/09:00pm 24.6 ESE 5 6 1012.6 - 0.0 - - - - - - -
18/08:30pm 24.4 ENE 3 4 1012.6 - 0.0 - - - - - - -
18/08:00pm 24.1 ENE 3 4 1012.6 - 0.0 - - - - - - -
18/07:30pm 24.1 ENE 3 5 1012.3 - 0.0 - - - - - - -
18/07:00pm 24.1 ENE 4 5 1011.8 - 0.0 - - - - - - -
18/06:30pm 24.1 ENE 4 4 1011.3 - 0.0 - - - - - - -
18/06:00pm 24.2 ENE 4 5 1011.0 - 0.0 - - - - - - -
18/05:30pm 24.3 ENE 4 5 1011.1 - 0.0 - - - - - - -
18/05:00pm 24.4 ENE 4 6 1011.2 - 0.0 - - - - - - -
18/04:30pm 24.3 E 4 6 1010.9 - 0.0 - - - - - - -
18/04:00pm 24.4 E 4 6 1010.5 - 0.0 - - - - - - -
18/03:30pm 24.5 E 5 7 1010.5 - 0.0 - - - - - - -
18/03:00pm 24.3 E 4 7 1010.0 - 0.0 - - - - - - -
18/02:30pm 23.9 NE 9 15 1010.5 - 0.0 - - - - - - -
18/02:05pm 26.4 NNE 15 23 1010.3 - 0.0 - - - - - - -
18/02:00pm 28.1 E 6 9 1010.3 - 0.0 - - - - - - -
18/01:30pm 28.3 ESE 6 10 1010.2 - 0.0 - - - - - - -
18/01:00pm 28.1 E 5 10 1010.1 - 0.0 - - - - - - -
18/12:30pm 27.6 E 7 13 1010.4 - 0.0 - - - - - - -
18/12:00pm 27.6 ESE 8 11 1011.1 - 0.0 - - - - - - -
18/11:30am 27.4 E 7 11 1011.8 - 0.0 - - - - - - -
18/11:00am 26.2 E 6 9 1011.8 - 0.0 - - - - - - -
18/10:30am 25.4 E 5 8 1011.9 - 0.0 - - - - - - -
18/10:00am 25.2 E 7 12 1011.7 - 0.0 - - - - - - -
18/09:30am 25.2 E 7 13 1011.5 - 0.0 - - - - - - -
18/09:00am 26.4 S 7 9 1011.2 - 0.0 - - - - - - -
18/08:30am 26.0 SSE 5 7 1011.3 - 0.0 - - - - - - -
18/08:00am 25.9 SE 5 8 1011.2 - 0.0 - - - - - - -
18/07:30am 25.4 SE 5 7 1010.9 - 0.0 - - - - - - -
18/07:00am 25.0 ESE 5 7 1010.4 - 0.0 - - - - - - -

Other Formats:

Comma delimited format used in spreadsheet applications
http://www.bom.gov.au/fwo/IDD60701/IDD60701.95146.axf

JavaScript Object Notation format (JSON) in row-major order
http://www.bom.gov.au/fwo/IDD60701/IDD60701.95146.json